createdAt,value
2018-05-01T00:00:38.902Z,95841.14
2018-05-01T00:03:04.806Z,95845.41
2018-05-01T00:05:34.083Z,95846.00
2018-05-01T00:07:59.970Z,95851.36
2018-05-01T00:10:27.299Z,95837.81
2018-05-01T00:12:53.185Z,95844.16
2018-05-01T00:15:21.899Z,95844.78
2018-05-01T00:17:47.823Z,95841.59
2018-05-01T00:20:16.736Z,95852.36
2018-05-01T00:22:42.618Z,95853.66
2018-05-01T00:25:11.451Z,95853.06
2018-05-01T00:27:37.340Z,95859.05
2018-05-01T00:30:03.235Z,95845.98
2018-05-01T00:32:29.192Z,95850.17
2018-05-01T00:34:55.066Z,95851.44
2018-05-01T00:37:24.895Z,95855.94
2018-05-01T00:39:50.787Z,95847.94
2018-05-01T00:42:17.563Z,95850.55
2018-05-01T00:44:43.495Z,95839.71
2018-05-01T00:47:12.434Z,95850.62
2018-05-01T00:49:38.373Z,95853.23
2018-05-01T00:52:07.415Z,95857.34
2018-05-01T00:54:33.328Z,95859.89
2018-05-01T00:57:02.562Z,95852.60
2018-05-01T00:59:28.447Z,95857.42
2018-05-01T01:01:57.706Z,95861.31
2018-05-01T01:04:23.628Z,95863.59
2018-05-01T01:06:49.559Z,95867.56
2018-05-01T01:09:15.467Z,95865.03
2018-05-01T01:11:41.366Z,95857.94
2018-05-01T01:14:08.868Z,95875.31
2018-05-01T01:16:34.745Z,95871.64
2018-05-01T01:19:04.140Z,95876.73
2018-05-01T01:21:30.058Z,95870.69
2018-05-01T01:23:57.999Z,95870.16
2018-05-01T01:26:23.868Z,95888.22
2018-05-01T01:28:52.972Z,95887.63
2018-05-01T01:31:18.832Z,95877.80
2018-05-01T01:33:48.238Z,95882.65
2018-05-01T01:36:13.938Z,95896.06
2018-05-01T01:38:42.851Z,95894.47
2018-05-01T01:41:08.591Z,95897.95
2018-05-01T01:43:34.323Z,95898.55
2018-05-01T01:46:00.044Z,95898.98
2018-05-01T01:48:25.776Z,95904.38
2018-05-01T01:50:53.591Z,95913.40
2018-05-01T01:53:19.318Z,95913.61
2018-05-01T01:55:47.825Z,95909.05
2018-05-01T01:58:13.608Z,95912.20
2018-05-01T02:00:39.345Z,95922.69
2018-05-01T02:03:05.074Z,95927.03
2018-05-01T02:05:30.864Z,95935.06
2018-05-01T02:07:58.709Z,95933.47
2018-05-01T02:10:24.433Z,95936.03
2018-05-01T02:12:50.157Z,95943.25
2018-05-01T02:15:15.883Z,95955.14
2018-05-01T02:17:41.648Z,95948.23
2018-05-01T02:20:07.383Z,95954.33
2018-05-01T02:22:33.136Z,95954.77
2018-05-01T02:24:58.831Z,95954.44
2018-05-01T02:27:24.555Z,95958.73
2018-05-01T02:29:50.316Z,95962.11
2018-05-01T02:32:16.043Z,95969.77
2018-05-01T02:34:41.783Z,95968.79
2018-05-01T02:37:07.521Z,95970.55
2018-05-01T02:39:33.252Z,95966.23
2018-05-01T02:41:58.996Z,95969.39
2018-05-01T02:44:24.710Z,95960.83
2018-05-01T02:46:50.514Z,95972.46
2018-05-01T02:49:16.179Z,95979.16
2018-05-01T02:51:41.916Z,95976.92
2018-05-01T02:54:07.700Z,95977.55
2018-05-01T02:56:33.427Z,95986.27
2018-05-01T02:58:59.167Z,95985.28
2018-05-01T03:01:24.873Z,95984.31
2018-05-01T03:03:50.598Z,95992.95
2018-05-01T03:06:16.329Z,95995.97
2018-05-01T03:08:42.035Z,95996.62
2018-05-01T03:11:07.807Z,95992.01
2018-05-01T03:13:33.526Z,95997.42
2018-05-01T03:15:59.239Z,96004.36
2018-05-01T03:18:24.984Z,96004.55
2018-05-01T03:20:50.723Z,96003.70
2018-05-01T03:23:16.553Z,96004.48
2018-05-01T03:25:42.292Z,96007.37
2018-05-01T03:28:08.041Z,96006.33
2018-05-01T03:30:33.771Z,96002.66
2018-05-01T03:32:59.524Z,96009.59
2018-05-01T03:35:25.360Z,96009.00
2018-05-01T03:37:51.067Z,96014.87
2018-05-01T03:40:16.780Z,96008.67
2018-05-01T03:42:42.506Z,96002.95
2018-05-01T03:45:08.228Z,96005.01
2018-05-01T03:47:33.963Z,96015.55
2018-05-01T03:49:59.716Z,96014.03
2018-05-01T03:52:25.437Z,96023.19
2018-05-01T03:54:51.136Z,96018.41
2018-05-01T03:57:16.879Z,96019.25
2018-05-01T03:59:42.618Z,96021.84
2018-05-01T04:02:08.346Z,96020.75
2018-05-01T04:04:34.065Z,96026.87
2018-05-01T04:06:59.797Z,96028.12
2018-05-01T04:09:25.507Z,96031.59
2018-05-01T04:11:51.225Z,96033.88
2018-05-01T04:14:16.947Z,96034.43
2018-05-01T04:16:44.058Z,96039.27
2018-05-01T04:19:09.780Z,96045.86
2018-05-01T04:21:39.036Z,96047.43
2018-05-01T04:24:04.803Z,96052.35
2018-05-01T04:26:30.513Z,96052.80
2018-05-01T04:28:56.249Z,96057.16
2018-05-01T04:31:21.972Z,96065.75
2018-05-01T04:33:51.026Z,96062.29
2018-05-01T04:36:16.746Z,96074.02
2018-05-01T04:38:44.782Z,96075.34
2018-05-01T04:41:10.534Z,96080.05
2018-05-01T04:43:39.137Z,96079.89
2018-05-01T04:46:04.812Z,96078.17
2018-05-01T04:48:30.527Z,96091.51
2018-05-01T04:50:56.404Z,96097.56
2018-05-01T04:53:22.139Z,96095.36
2018-05-01T04:55:50.683Z,96103.66
2018-05-01T04:58:16.442Z,96109.95
2018-05-01T05:00:42.143Z,96107.00
2018-05-01T05:03:07.847Z,96107.86
2018-05-01T05:05:33.601Z,96110.01
2018-05-01T05:08:01.420Z,96117.58
2018-05-01T05:10:27.856Z,96120.39
2018-05-01T05:12:53.616Z,96125.30
2018-05-01T05:15:19.333Z,96125.95
2018-05-01T05:17:45.079Z,96131.92
2018-05-01T05:20:10.796Z,96126.91
2018-05-01T05:22:36.512Z,96125.44
2018-05-01T05:25:02.243Z,96130.34
2018-05-01T05:27:27.969Z,96132.52
2018-05-01T05:29:53.700Z,96124.31
2018-05-01T05:32:19.405Z,96134.94
2018-05-01T05:34:45.121Z,96130.48
2018-05-01T05:37:10.817Z,96141.42
2018-05-01T05:39:36.502Z,96150.24
2018-05-01T05:42:02.291Z,96149.06
2018-05-01T05:44:28.025Z,96145.68
2018-05-01T05:46:53.740Z,96136.45
2018-05-01T05:49:19.488Z,96140.80
2018-05-01T05:51:45.221Z,96146.70
2018-05-01T05:54:10.934Z,96146.45
2018-05-01T05:56:36.636Z,96151.42
2018-05-01T05:59:02.380Z,96150.64
2018-05-01T06:01:28.102Z,96160.52
2018-05-01T06:03:53.823Z,96160.95
2018-05-01T06:06:19.530Z,96173.56
2018-05-01T06:08:45.241Z,96182.00
2018-05-01T06:11:10.956Z,96182.42
2018-05-01T06:13:37.627Z,96186.91
2018-05-01T06:16:03.430Z,96189.41
2018-05-01T06:18:29.167Z,96200.00
2018-05-01T06:20:54.872Z,96201.83
2018-05-01T06:23:20.577Z,96207.22
2018-05-01T06:25:46.634Z,96214.58
2018-05-01T06:28:12.493Z,96225.30
2018-05-01T06:30:38.244Z,96221.83
2018-05-01T06:33:04.021Z,96228.03
2018-05-01T06:35:29.748Z,96230.08
2018-05-01T06:37:55.507Z,96227.75
2018-05-01T06:40:21.273Z,96226.07
2018-05-01T06:42:47.003Z,96223.52
2018-05-01T06:45:12.701Z,96232.19
2018-05-01T06:47:38.415Z,96222.78
2018-05-01T06:50:04.164Z,96224.52
2018-05-01T06:52:29.879Z,96219.71
2018-05-01T06:54:55.611Z,96226.42
2018-05-01T06:57:21.334Z,96222.66
2018-05-01T06:59:47.061Z,96215.69
2018-05-01T07:02:12.827Z,96221.27
2018-05-01T07:04:38.608Z,96218.02
2018-05-01T07:07:04.289Z,96223.36
2018-05-01T07:09:30.054Z,96232.00
2018-05-01T07:11:55.786Z,96225.96
2018-05-01T07:14:21.515Z,96218.67
2018-05-01T07:16:47.239Z,96218.50
2018-05-01T07:19:12.993Z,96220.58
2018-05-01T07:21:41.983Z,96228.98
2018-05-01T07:24:07.716Z,96228.05
2018-05-01T07:26:36.795Z,96229.44
2018-05-01T07:29:02.529Z,96231.50
2018-05-01T07:31:31.668Z,96224.82
2018-05-01T07:33:57.361Z,96224.58
2018-05-01T07:36:25.377Z,96235.33
2018-05-01T07:38:51.112Z,96239.47
2018-05-01T07:41:19.564Z,96241.15
2018-05-01T07:43:45.529Z,96245.35
2018-05-01T07:46:11.255Z,96245.18
2018-05-01T07:48:39.122Z,96244.14
2018-05-01T07:51:04.899Z,96246.82
2018-05-01T07:53:31.732Z,96246.52
2018-05-01T07:55:57.453Z,96254.02
2018-05-01T07:58:25.975Z,96253.62
2018-05-01T08:00:51.719Z,96255.48
2018-05-01T08:03:17.406Z,96247.03
2018-05-01T08:05:43.248Z,96242.22
2018-05-01T08:08:08.955Z,96247.36
2018-05-01T08:10:36.803Z,96247.34
2018-05-01T08:13:02.537Z,96244.00
2018-05-01T08:15:28.255Z,96250.46
2018-05-01T08:17:53.967Z,96241.73
2018-05-01T08:20:19.659Z,96241.88
2018-05-01T08:22:45.403Z,96236.88
2018-05-01T08:25:11.110Z,96243.80
2018-05-01T08:27:36.843Z,96247.99
2018-05-01T08:30:02.566Z,96247.83
2018-05-01T08:32:28.304Z,96253.89
2018-05-01T08:34:54.020Z,96242.55
2018-05-01T08:37:20.770Z,96239.32
2018-05-01T08:39:46.528Z,96244.62
2018-05-01T08:42:12.236Z,96252.45
2018-05-01T08:44:37.935Z,96255.38
2018-05-01T08:47:03.650Z,96258.53
2018-05-01T08:49:35.011Z,96266.34
2018-05-01T08:52:00.783Z,96266.13
2018-05-01T08:54:26.519Z,96267.89
2018-05-01T08:56:52.219Z,96277.27
2018-05-01T08:59:17.969Z,96279.78
2018-05-01T09:01:43.687Z,96279.45
2018-05-01T09:04:09.408Z,96289.55
2018-05-01T09:06:35.123Z,96299.58
2018-05-01T09:09:00.854Z,96312.58
2018-05-01T09:11:29.019Z,96293.78
2018-05-01T09:13:54.728Z,96295.50
2018-05-01T09:16:20.451Z,96297.13
2018-05-01T09:18:46.174Z,96302.47
2018-05-01T09:21:11.885Z,96300.97
2018-05-01T09:23:37.603Z,96301.37
2018-05-01T09:26:03.557Z,96310.62
2018-05-01T09:28:29.311Z,96302.45
2018-05-01T09:30:55.067Z,96302.92
2018-05-01T09:33:20.780Z,96303.87
2018-05-01T09:35:46.507Z,96308.10
2018-05-01T09:38:12.246Z,96305.44
2018-05-01T09:40:37.943Z,96311.66
2018-05-01T09:43:03.683Z,96309.97
2018-05-01T09:45:29.416Z,96307.85
2018-05-01T09:47:55.172Z,96302.13
2018-05-01T09:50:20.895Z,96297.69
2018-05-01T09:52:46.744Z,96289.42
2018-05-01T09:55:12.640Z,96301.71
2018-05-01T09:57:38.544Z,96304.73
2018-05-01T10:00:04.437Z,96307.36
2018-05-01T10:02:30.359Z,96312.91
2018-05-01T10:04:56.304Z,96310.31
2018-05-01T10:07:22.195Z,96312.21
2018-05-01T10:09:48.073Z,96310.41
2018-05-01T10:12:14.027Z,96302.31
2018-05-01T10:14:40.651Z,96307.92
2018-05-01T10:17:06.620Z,96298.54
2018-05-01T10:19:32.530Z,96303.87
2018-05-01T10:21:58.467Z,96299.36
2018-05-01T10:24:24.348Z,96294.02
2018-05-01T10:26:50.251Z,96290.45
2018-05-01T10:29:16.143Z,96296.77
2018-05-01T10:31:42.088Z,96298.05
2018-05-01T10:34:08.053Z,96291.13
2018-05-01T10:36:33.992Z,96294.38
2018-05-01T10:39:00.009Z,96296.50
2018-05-01T10:41:25.840Z,96287.36
2018-05-01T10:43:51.741Z,96295.20
2018-05-01T10:46:17.732Z,96296.50
2018-05-01T10:48:43.608Z,96286.48
2018-05-01T10:51:12.451Z,96296.15
2018-05-01T10:53:38.380Z,96289.47
2018-05-01T10:56:06.915Z,96293.70
2018-05-01T10:58:32.811Z,96291.05
2018-05-01T11:01:02.227Z,96295.73
2018-05-01T11:03:28.148Z,96288.02
2018-05-01T11:05:57.745Z,96277.58
2018-05-01T11:08:23.636Z,96276.64
2018-05-01T11:10:49.535Z,96268.99
2018-05-01T11:13:15.416Z,96269.48
2018-05-01T11:15:41.328Z,96268.79
2018-05-01T11:18:09.075Z,96272.78
2018-05-01T11:20:34.966Z,96286.05
2018-05-01T11:23:04.210Z,96284.16
2018-05-01T11:25:30.096Z,96286.55
2018-05-01T11:27:57.971Z,96278.39
2018-05-01T11:30:23.879Z,96282.69
2018-05-01T11:32:53.286Z,96263.50
2018-05-01T11:35:19.173Z,96296.44
2018-05-01T11:37:48.335Z,96290.14
2018-05-01T11:40:14.337Z,96300.47
2018-05-01T11:42:42.052Z,96308.33
2018-05-01T11:45:07.964Z,96317.27
2018-05-01T11:47:33.879Z,96322.75
2018-05-01T11:49:59.718Z,96318.67
2018-05-01T11:52:25.614Z,96328.60
2018-05-01T11:54:55.157Z,96336.66
2018-05-01T11:57:21.036Z,96335.09
2018-05-01T11:59:48.968Z,96333.48
2018-05-01T12:02:14.888Z,96329.88
2018-05-01T12:04:44.016Z,96325.22
2018-05-01T12:07:10.036Z,96319.84
2018-05-01T12:09:37.774Z,96312.73
2018-05-01T12:12:03.684Z,96315.09
2018-05-01T12:14:33.631Z,96319.47
2018-05-01T12:16:59.486Z,96326.00
2018-05-01T12:19:27.520Z,96316.06
2018-05-01T12:21:53.407Z,96319.23
2018-05-01T12:24:19.306Z,96310.19
2018-05-01T12:26:45.219Z,96311.33
2018-05-01T12:29:11.127Z,96315.48
2018-05-01T12:31:40.795Z,96319.08
2018-05-01T12:34:06.675Z,96326.27
2018-05-01T12:36:33.887Z,96320.66
2018-05-01T12:38:59.715Z,96319.30
2018-05-01T12:41:28.713Z,96316.83
2018-05-01T12:43:54.612Z,96314.13
2018-05-01T12:46:23.327Z,96303.56
2018-05-01T12:48:49.255Z,96307.06
2018-05-01T12:51:18.619Z,96308.00
2018-05-01T12:53:44.583Z,96306.84
2018-05-01T12:56:13.499Z,96304.35
2018-05-01T12:58:39.383Z,96301.00
2018-05-01T13:04:21.943Z,96304.39
2018-05-01T13:06:49.222Z,96294.72
2018-05-01T13:09:16.440Z,96240.81
2018-05-01T13:11:43.681Z,96291.02
2018-05-01T13:14:10.899Z,96293.61
2018-05-01T13:16:38.101Z,96289.66
2018-05-01T13:19:05.313Z,96281.49
2018-05-01T13:21:32.432Z,96286.84
2018-05-01T13:23:59.721Z,96284.75
2018-05-01T13:26:26.842Z,96250.31
2018-05-01T13:28:54.079Z,96278.82
2018-05-01T13:31:21.239Z,96278.45
2018-05-01T13:33:48.409Z,96277.00
2018-05-01T13:36:16.155Z,96284.06
2018-05-01T13:38:43.327Z,96294.02
2018-05-01T13:41:10.513Z,96293.85
2018-05-01T13:43:37.735Z,96292.40
2018-05-01T13:46:04.964Z,96271.57
2018-05-01T13:48:32.195Z,96268.14
2018-05-01T13:50:59.475Z,96264.20
2018-05-01T13:53:26.659Z,96257.11
2018-05-01T13:55:53.848Z,96253.27
2018-05-01T13:58:21.044Z,96260.34
2018-05-01T14:00:48.181Z,96263.77
2018-05-01T14:03:15.374Z,96273.17
2018-05-01T14:05:42.964Z,96262.11
2018-05-01T14:08:10.143Z,96265.48
2018-05-01T14:10:37.343Z,96255.33
2018-05-01T14:13:04.623Z,96256.23
2018-05-01T14:15:31.923Z,96255.07
2018-05-01T14:17:59.224Z,96255.38
2018-05-01T14:20:26.460Z,96198.99
2018-05-01T14:22:53.724Z,96253.88
2018-05-01T14:25:21.104Z,96249.41
2018-05-01T14:27:48.307Z,96253.66
2018-05-01T14:30:15.466Z,96250.72
2018-05-01T14:32:42.644Z,96241.50
2018-05-01T14:35:09.883Z,96229.61
2018-05-01T14:37:37.089Z,96240.37
2018-05-01T14:40:04.287Z,96233.11
2018-05-01T14:42:31.564Z,96228.63
2018-05-01T14:44:58.738Z,96224.49
2018-05-01T14:47:25.907Z,96219.94
2018-05-01T14:49:53.151Z,96237.47
2018-05-01T14:52:20.348Z,96235.12
2018-05-01T14:54:47.608Z,96235.66
2018-05-01T14:57:14.800Z,96228.94
2018-05-01T14:59:41.995Z,96222.32
2018-05-01T15:02:09.159Z,96228.48
2018-05-01T15:04:36.462Z,96226.25
2018-05-01T15:07:03.643Z,96223.06
2018-05-01T15:09:30.868Z,96230.52
2018-05-01T15:11:58.146Z,96231.83
2018-05-01T15:14:25.355Z,96230.53
2018-05-01T15:16:52.659Z,96229.36
2018-05-01T15:22:29.560Z,96236.06
2018-05-01T15:24:55.426Z,96228.45
2018-05-01T15:27:21.398Z,96224.40
2018-05-01T15:29:47.314Z,96223.90
2018-05-01T15:32:13.230Z,96216.95
2018-05-01T15:34:39.146Z,96223.19
2018-05-01T15:37:05.024Z,96218.91
2018-05-01T15:39:30.943Z,96207.70
2018-05-01T15:41:56.888Z,96209.27
2018-05-01T15:44:22.787Z,96208.75
2018-05-01T15:46:49.859Z,96209.95
2018-05-01T15:49:15.790Z,96202.88
2018-05-01T15:51:41.794Z,96207.46
2018-05-01T15:54:07.647Z,96219.84
2018-05-01T15:56:33.579Z,96216.30
2018-05-01T15:58:59.505Z,96214.11
2018-05-01T16:01:25.445Z,96208.94
2018-05-01T16:03:51.356Z,96209.04
2018-05-01T16:06:17.246Z,96209.11
2018-05-01T16:08:43.135Z,96206.19
2018-05-01T16:11:09.028Z,96206.98
2018-05-01T16:13:34.956Z,96211.22
2018-05-01T16:16:00.831Z,96207.22
2018-05-01T16:18:26.879Z,96211.98
2018-05-01T16:20:52.774Z,96218.59
2018-05-01T16:23:18.689Z,96211.18
2018-05-01T16:25:44.648Z,96216.36
2018-05-01T16:28:10.510Z,96221.95
2018-05-01T16:30:36.439Z,96217.59
2018-05-01T16:33:02.385Z,96221.32
2018-05-01T16:35:28.311Z,96219.18
2018-05-01T16:37:56.049Z,96216.22
2018-05-01T16:40:22.042Z,96222.02
2018-05-01T16:42:50.139Z,96211.17
2018-05-01T16:45:16.056Z,96212.92
2018-05-01T16:47:48.767Z,96214.28
2018-05-01T16:50:14.649Z,96214.13
2018-05-01T16:52:40.553Z,96216.20
2018-05-01T16:55:06.505Z,96215.71
2018-05-01T16:57:34.708Z,96214.94
2018-05-01T17:00:00.619Z,96221.73
2018-05-01T17:02:26.538Z,96225.72
2018-05-01T17:04:52.427Z,96226.17
2018-05-01T17:07:18.306Z,96226.05
2018-05-01T17:09:47.728Z,96229.73
2018-05-01T17:12:13.644Z,96218.45
2018-05-01T17:14:42.123Z,96222.58
2018-05-01T17:17:08.096Z,96220.52
2018-05-01T17:19:35.543Z,96213.05
2018-05-01T17:22:01.470Z,96211.23
2018-05-01T17:24:31.097Z,96216.89
2018-05-01T17:26:57.031Z,96213.78
2018-05-01T17:29:26.441Z,96213.49
2018-05-01T17:31:52.369Z,96218.44
2018-05-01T17:34:20.152Z,96225.97
2018-05-01T17:36:46.051Z,96229.84
2018-05-01T17:39:11.937Z,96233.30
2018-05-01T17:41:37.833Z,96233.77
2018-05-01T17:44:03.726Z,96228.63
2018-05-01T17:46:31.664Z,96236.51
2018-05-01T17:48:57.583Z,96229.73
2018-05-01T17:51:27.074Z,96230.61
2018-05-01T17:53:52.933Z,96232.97
2018-05-01T17:56:20.762Z,96231.47
2018-05-01T17:58:46.663Z,96229.91
2018-05-01T18:01:15.684Z,96234.26
2018-05-01T18:03:41.585Z,96236.95
2018-05-01T18:06:10.806Z,96248.63
2018-05-01T18:08:36.768Z,96248.69
2018-05-01T18:11:05.975Z,96258.37
2018-05-01T18:13:31.851Z,96260.61
2018-05-01T18:15:57.760Z,96261.52
2018-05-01T18:18:23.719Z,96263.51
2018-05-01T18:20:49.600Z,96260.34
2018-05-01T18:23:16.575Z,96272.26
2018-05-01T18:25:42.449Z,96269.84
2018-05-01T18:28:11.666Z,96271.19
2018-05-01T18:30:37.622Z,96268.47
2018-05-01T18:33:06.019Z,96264.43
2018-05-01T18:35:31.945Z,96268.59
2018-05-01T18:38:00.874Z,96272.04
2018-05-01T18:40:26.836Z,96278.23
2018-05-01T18:42:56.513Z,96272.20
2018-05-01T18:45:29.186Z,96275.17
2018-05-01T18:48:01.810Z,96280.66
2018-05-01T18:50:30.188Z,96284.53
2018-05-01T18:52:54.092Z,96285.48
2018-05-01T18:55:20.032Z,96287.20
2018-05-01T18:57:45.971Z,96280.95
2018-05-01T19:00:11.883Z,96287.17
2018-05-01T19:02:38.996Z,96290.23
2018-05-01T19:05:04.929Z,96295.09
2018-05-01T19:07:37.468Z,96294.04
2018-05-01T19:10:04.355Z,96287.59
2018-05-01T19:12:30.292Z,96284.05
2018-05-01T19:14:56.479Z,96290.79
2018-05-01T19:17:22.405Z,96297.81
2018-05-01T19:19:48.333Z,96307.98
2018-05-01T19:22:14.286Z,96310.44
2018-05-01T19:24:40.219Z,96319.99
2018-05-01T19:27:06.113Z,96311.20
2018-05-01T19:29:32.022Z,96317.27
2018-05-01T19:31:57.925Z,96329.30
2018-05-01T19:34:23.885Z,96327.14
2018-05-01T19:36:49.822Z,96328.16
2018-05-01T19:39:15.722Z,96325.16
2018-05-01T19:41:41.974Z,96326.84
2018-05-01T19:44:07.848Z,96330.30
2018-05-01T19:46:37.554Z,96334.42
2018-05-01T19:49:03.418Z,96338.16
2018-05-01T19:51:32.794Z,96333.91
2018-05-01T19:53:58.727Z,96332.64
2018-05-01T19:56:26.138Z,96335.84
2018-05-01T19:58:52.016Z,96326.94
2018-05-01T20:01:24.735Z,96326.39
2018-05-01T20:03:50.657Z,96327.48
2018-05-01T20:06:16.615Z,96329.16
2018-05-01T20:08:42.525Z,96330.56
2018-05-01T20:11:08.455Z,96329.87
2018-05-01T20:13:34.395Z,96327.56
2018-05-01T20:16:00.273Z,96332.52
2018-05-01T20:18:27.913Z,96338.03
2018-05-01T20:20:53.821Z,96341.53
2018-05-01T20:23:22.113Z,96335.00
2018-05-01T20:25:47.966Z,96340.84
2018-05-01T20:28:17.547Z,96328.68
2018-05-01T20:30:43.478Z,96344.34
2018-05-01T20:33:11.411Z,96345.77
2018-05-01T20:35:37.278Z,96343.73
2018-05-01T20:38:06.436Z,96349.75
2018-05-01T20:40:32.364Z,96345.11
2018-05-01T20:42:58.274Z,96346.15
2018-05-01T20:45:24.162Z,96352.73
2018-05-01T20:47:50.109Z,96348.12
2018-05-01T20:50:17.906Z,96333.84
2018-05-01T20:52:43.799Z,96330.39
2018-05-01T20:55:13.308Z,96332.69
2018-05-01T20:57:39.181Z,96334.16
2018-05-01T21:00:07.432Z,96332.44
2018-05-01T21:02:33.355Z,96329.50
2018-05-01T21:05:02.794Z,96330.86
2018-05-01T21:07:28.653Z,96333.13
2018-05-01T21:09:56.787Z,96330.72
2018-05-01T21:12:22.665Z,96332.33
2018-05-01T21:14:52.344Z,96327.25
2018-05-01T21:17:18.276Z,96323.02
2018-05-01T21:19:44.218Z,96331.97
2018-05-01T21:22:10.169Z,96326.55
2018-05-01T21:24:36.039Z,96328.41
2018-05-01T21:27:03.608Z,96325.73
2018-05-01T21:29:29.503Z,96321.50
2018-05-01T21:31:58.874Z,96317.74
2018-05-01T21:34:24.845Z,96312.63
2018-05-01T21:36:54.071Z,96313.40
2018-05-01T21:39:19.968Z,96318.31
2018-05-01T21:41:47.208Z,96322.51
2018-05-01T21:44:13.085Z,96326.27
2018-05-01T21:46:41.798Z,96329.48
2018-05-01T21:49:07.703Z,96327.28
2018-05-01T21:51:36.447Z,96331.00
2018-05-01T21:54:02.373Z,96331.59
2018-05-01T21:56:28.239Z,96328.63
2018-05-01T21:58:54.145Z,96334.73
2018-05-01T22:01:20.082Z,96332.45
2018-05-01T22:03:48.601Z,96330.67
2018-05-01T22:06:14.510Z,96335.56
2018-05-01T22:08:44.319Z,96335.48
2018-05-01T22:11:10.241Z,96336.64
2018-05-01T22:13:39.519Z,96338.55
2018-05-01T22:16:05.431Z,96331.56
2018-05-01T22:18:33.256Z,96331.29
2018-05-01T22:20:59.114Z,96326.91
2018-05-01T22:23:28.164Z,96331.84
2018-05-01T22:25:54.047Z,96329.34
2018-05-01T22:28:23.247Z,96322.97
2018-05-01T22:30:49.130Z,96331.26
2018-05-01T22:33:15.050Z,96329.05
2018-05-01T22:35:40.965Z,96329.20
2018-05-01T22:38:06.860Z,96321.42
2018-05-01T22:40:33.659Z,96321.48
2018-05-01T22:42:59.527Z,96333.11
2018-05-01T22:45:28.547Z,96334.19
2018-05-01T22:47:54.496Z,96330.44
2018-05-01T22:50:24.116Z,96331.70
2018-05-01T22:52:50.039Z,96333.45
2018-05-01T22:55:19.395Z,96328.45
2018-05-01T22:57:45.292Z,96323.99
2018-05-01T23:00:12.906Z,96317.78
2018-05-01T23:02:38.794Z,96327.70
2018-05-01T23:05:07.581Z,96324.18
2018-05-01T23:07:33.504Z,96320.72
2018-05-01T23:09:59.448Z,96313.12
2018-05-01T23:12:25.331Z,96316.72
2018-05-01T23:14:51.321Z,96312.06
2018-05-01T23:17:20.745Z,96307.88
2018-05-01T23:19:46.618Z,96318.02
2018-05-01T23:22:13.785Z,96300.61
2018-05-01T23:24:39.663Z,96315.89
2018-05-01T23:27:08.478Z,96308.96
2018-05-01T23:29:34.396Z,96307.69
2018-05-01T23:32:03.127Z,96304.38
2018-05-01T23:34:29.025Z,96299.97
2018-05-01T23:36:58.018Z,96289.67
2018-05-01T23:39:23.901Z,96300.00
2018-05-01T23:41:53.314Z,96304.91
2018-05-01T23:44:19.232Z,96318.72
2018-05-01T23:46:45.131Z,96309.83
2018-05-01T23:49:11.013Z,96316.50
2018-05-01T23:51:36.895Z,96313.88
2018-05-01T23:54:04.447Z,96318.32
2018-05-01T23:56:30.354Z,96317.19
2018-05-01T23:58:59.773Z,96321.55
